createdAt,value
2022-08-26T00:00:54.110Z,5.60
2022-08-26T00:03:22.743Z,5.22
2022-08-26T00:05:50.740Z,5.18
2022-08-26T00:08:19.828Z,5.68
2022-08-26T00:15:52.443Z,6.20
2022-08-26T00:18:23.057Z,5.40
2022-08-26T00:20:54.350Z,5.80
2022-08-26T00:23:24.253Z,6.07
2022-08-26T00:25:51.923Z,5.93
2022-08-26T00:28:19.673Z,5.65
2022-08-26T00:30:49.447Z,6.00
2022-08-26T00:36:01.177Z,6.82
2022-08-26T00:38:28.017Z,6.70
2022-08-26T00:40:57.132Z,5.85
2022-08-26T00:43:25.361Z,6.50
2022-08-26T00:46:13.040Z,6.53
2022-08-26T00:48:44.385Z,6.53
2022-08-26T00:51:16.605Z,6.30
2022-08-26T00:59:02.954Z,6.75
2022-08-26T01:01:31.835Z,6.40
2022-08-26T01:04:00.502Z,6.15
2022-08-26T01:06:30.699Z,6.25
2022-08-26T01:08:58.161Z,6.60
2022-08-26T01:11:26.607Z,6.55
2022-08-26T01:13:58.665Z,6.60
2022-08-26T01:21:27.141Z,5.80
2022-08-26T01:23:57.499Z,7.32
2022-08-26T01:26:32.824Z,7.00
2022-08-26T01:29:02.422Z,5.88
2022-08-26T01:31:37.297Z,6.57
2022-08-26T01:34:10.449Z,6.05
2022-08-26T01:36:39.382Z,6.10
2022-08-26T01:45:00.503Z,7.13
2022-08-26T01:47:30.349Z,6.55
2022-08-26T01:50:00.803Z,6.75
2022-08-26T01:52:32.857Z,7.30
2022-08-26T01:55:00.390Z,6.60
2022-08-26T01:57:28.622Z,6.28
2022-08-26T01:59:59.412Z,6.22
2022-08-26T02:07:21.551Z,7.30
2022-08-26T02:09:51.263Z,7.47
2022-08-26T02:12:22.262Z,8.20
2022-08-26T02:14:56.298Z,7.25
2022-08-26T02:17:40.272Z,6.95
2022-08-26T02:20:14.836Z,7.45
2022-08-26T02:37:58.423Z,7.35
2022-08-26T02:40:33.930Z,7.15
2022-08-26T02:43:03.045Z,7.00
2022-08-26T02:45:30.305Z,7.30
2022-08-26T02:47:58.025Z,7.05
2022-08-26T02:50:28.486Z,7.38
2022-08-26T02:52:55.280Z,7.00
2022-08-26T03:00:52.665Z,7.85
2022-08-26T03:03:23.490Z,6.70
2022-08-26T03:05:51.832Z,6.60
2022-08-26T03:08:19.070Z,5.65
2022-08-26T03:10:47.179Z,5.93
2022-08-26T03:13:17.349Z,7.22
2022-08-26T03:15:44.933Z,7.65
2022-08-26T03:23:20.614Z,7.70
2022-08-26T03:25:53.389Z,7.25
2022-08-26T03:28:20.824Z,7.05
2022-08-26T03:30:48.784Z,7.47
2022-08-26T03:33:16.019Z,8.05
2022-08-26T03:35:44.847Z,8.13
2022-08-26T03:38:12.489Z,8.02
2022-08-26T03:45:50.804Z,8.00
2022-08-26T03:48:18.360Z,8.70
2022-08-26T03:50:45.721Z,7.13
2022-08-26T03:55:43.215Z,8.13
2022-08-26T03:58:10.680Z,7.93
2022-08-26T04:00:37.887Z,8.48
2022-08-26T04:05:45.516Z,8.70
2022-08-26T04:08:13.631Z,9.10
2022-08-26T04:10:42.436Z,8.50
2022-08-26T04:13:13.363Z,7.32
2022-08-26T04:15:43.314Z,7.40
2022-08-26T04:18:18.330Z,8.05
2022-08-26T04:20:46.987Z,8.68
2022-08-26T04:25:55.475Z,10.18
2022-08-26T04:28:22.619Z,10.20
2022-08-26T04:30:49.404Z,9.60
2022-08-26T04:33:17.871Z,10.27
2022-08-26T04:36:03.309Z,10.52
2022-08-26T04:38:31.623Z,9.88
2022-08-26T04:40:58.612Z,11.25
2022-08-26T04:48:42.369Z,10.80
2022-08-26T04:51:09.878Z,10.02
2022-08-26T04:53:37.909Z,10.88
2022-08-26T04:56:05.535Z,10.70
2022-08-26T04:58:32.586Z,10.25
2022-08-26T05:01:00.099Z,11.90
2022-08-26T05:03:30.466Z,10.88
2022-08-26T05:11:05.756Z,12.32
2022-08-26T05:13:35.427Z,13.60
2022-08-26T05:16:04.713Z,11.95
2022-08-26T05:18:33.583Z,12.90
2022-08-26T05:21:02.007Z,13.40
2022-08-26T05:23:33.069Z,11.27
2022-08-26T05:26:00.654Z,13.43
2022-08-26T05:44:20.575Z,11.20
2022-08-26T05:46:49.232Z,12.15
2022-08-26T05:49:18.577Z,13.02
2022-08-26T05:51:48.026Z,12.32
2022-08-26T05:54:21.931Z,11.95
2022-08-26T05:56:51.104Z,12.00
2022-08-26T05:59:24.086Z,11.95
2022-08-26T06:27:55.596Z,10.23
2022-08-26T06:30:22.788Z,11.25
2022-08-26T06:32:52.505Z,11.70
2022-08-26T06:35:20.183Z,10.07
2022-08-26T06:37:48.540Z,9.80
2022-08-26T06:40:17.492Z,10.38
2022-08-26T06:42:44.399Z,12.05
2022-08-26T06:45:11.362Z,11.35
2022-08-26T06:52:41.605Z,12.35
2022-08-26T06:57:37.781Z,12.55
2022-08-26T07:00:10.498Z,10.20
2022-08-26T07:02:38.721Z,11.25
2022-08-26T07:05:07.364Z,11.82
2022-08-26T07:07:34.474Z,12.13
2022-08-26T07:14:36.447Z,9.50
2022-08-26T07:17:03.413Z,11.25
2022-08-26T07:19:31.743Z,10.13
2022-08-26T07:22:06.304Z,10.00
2022-08-26T07:27:08.940Z,9.68
2022-08-26T07:29:39.045Z,9.43
2022-08-26T07:35:05.741Z,8.85
2022-08-26T07:37:35.482Z,9.48
2022-08-26T07:40:07.810Z,9.05
2022-08-26T07:42:36.502Z,8.77
2022-08-26T07:45:04.468Z,8.35
2022-08-26T07:47:32.345Z,8.45
2022-08-26T07:49:59.641Z,8.13
2022-08-26T08:42:06.068Z,6.93
2022-08-26T08:44:37.495Z,6.38
2022-08-26T08:47:20.757Z,6.88
2022-08-26T08:49:47.857Z,6.47
2022-08-26T08:52:35.069Z,6.18
2022-08-26T08:59:38.418Z,5.35
2022-08-26T09:04:53.937Z,5.20
2022-08-26T09:07:47.122Z,6.20
2022-08-26T09:10:37.204Z,5.50
2022-08-26T09:13:16.851Z,4.45
2022-08-26T09:21:42.974Z,4.32
2022-08-26T09:26:48.198Z,4.82
2022-08-26T09:29:26.684Z,4.03
2022-08-26T09:32:18.759Z,5.43
2022-08-26T09:34:53.929Z,4.55
2022-08-26T09:42:25.456Z,4.45
2022-08-26T09:44:54.438Z,4.35
2022-08-26T09:47:26.211Z,4.03
2022-08-26T09:50:04.173Z,4.93
2022-08-26T09:52:36.200Z,4.45
2022-08-26T09:55:11.949Z,5.22
2022-08-26T09:57:51.158Z,4.43
2022-08-26T10:34:34.698Z,5.47
2022-08-26T10:37:16.285Z,6.70
2022-08-26T10:39:57.303Z,5.43
2022-08-26T10:43:09.928Z,4.88
2022-08-26T10:45:43.639Z,5.70
2022-08-26T10:48:24.182Z,6.53
2022-08-26T10:51:10.131Z,7.05
2022-08-26T10:57:09.778Z,7.63
2022-08-26T11:00:39.835Z,7.38
2022-08-26T11:03:38.672Z,7.72
2022-08-26T11:06:55.382Z,8.73
2022-08-26T11:10:15.842Z,8.20
2022-08-26T11:12:44.934Z,7.78
2022-08-26T11:31:31.884Z,7.47
2022-08-26T11:34:06.791Z,7.53
2022-08-26T11:36:48.842Z,7.75
2022-08-26T11:39:54.442Z,7.15
2022-08-26T11:42:35.159Z,7.47
2022-08-26T12:03:55.100Z,7.75
2022-08-26T12:06:32.285Z,8.02
2022-08-26T12:09:03.571Z,8.05
2022-08-26T12:11:40.184Z,7.45
2022-08-26T12:14:22.332Z,6.45
2022-08-26T12:16:54.773Z,7.10
2022-08-26T12:24:08.892Z,6.55
2022-08-26T12:26:37.692Z,6.88
2022-08-26T12:29:19.826Z,6.57
2022-08-26T12:31:47.514Z,6.90
2022-08-26T12:34:18.198Z,7.82
2022-08-26T12:36:56.036Z,8.02
2022-08-26T12:39:29.844Z,7.40
2022-08-26T12:57:47.052Z,5.88
2022-08-26T13:00:36.470Z,7.20
2022-08-26T13:03:04.143Z,7.00
2022-08-26T13:05:52.770Z,6.00
2022-08-26T13:08:27.838Z,6.78
2022-08-26T13:11:11.289Z,6.50
2022-08-26T15:33:02.021Z,11.23
2022-08-26T15:35:29.666Z,12.20
2022-08-26T15:37:59.877Z,11.60
2022-08-26T15:40:29.347Z,11.98
2022-08-26T15:45:43.771Z,11.60
2022-08-26T15:48:11.285Z,11.77
2022-08-26T16:08:14.377Z,12.30
2022-08-26T16:10:50.247Z,11.43
2022-08-26T16:13:21.832Z,12.18
2022-08-26T16:15:53.837Z,11.30
2022-08-26T16:18:24.227Z,10.73
2022-08-26T16:21:02.716Z,11.90
2022-08-26T16:28:12.960Z,10.50
2022-08-26T16:30:42.019Z,11.00
2022-08-26T16:33:09.366Z,10.43
2022-08-26T16:35:37.800Z,10.68
2022-08-26T16:38:04.728Z,10.10
2022-08-26T16:40:32.094Z,10.02
2022-08-26T16:42:59.576Z,10.60
2022-08-26T16:48:11.795Z,9.60
2022-08-26T16:50:43.474Z,9.95
2022-08-26T16:55:38.571Z,11.25
2022-08-26T16:58:05.654Z,10.57
2022-08-26T17:00:34.061Z,10.40
2022-08-26T17:03:01.670Z,10.30
2022-08-26T17:10:35.967Z,11.77
2022-08-26T17:13:03.333Z,10.45
2022-08-26T17:15:31.445Z,11.55
2022-08-26T17:17:58.538Z,11.15
2022-08-26T17:20:26.478Z,11.63
2022-08-26T17:22:56.954Z,10.23
2022-08-26T17:25:31.055Z,10.57
2022-08-26T17:33:22.023Z,10.35
2022-08-26T17:35:52.443Z,9.88
2022-08-26T17:38:20.545Z,10.25
2022-08-26T17:40:47.945Z,11.38
2022-08-26T17:43:14.937Z,11.02
2022-08-26T17:45:43.407Z,11.20
2022-08-26T17:48:10.713Z,10.93
2022-08-26T17:55:47.504Z,10.88
2022-08-26T17:58:18.057Z,10.98
2022-08-26T18:00:49.058Z,9.77
2022-08-26T18:03:16.601Z,10.32
2022-08-26T18:05:47.277Z,11.30
2022-08-26T18:08:15.008Z,10.75
2022-08-26T18:10:45.187Z,10.25
2022-08-26T18:17:31.420Z,10.75
2022-08-26T18:20:02.053Z,10.45
2022-08-26T18:22:32.013Z,10.88
2022-08-26T18:25:00.585Z,11.20
2022-08-26T18:27:27.663Z,12.88
2022-08-26T18:29:55.693Z,12.07
2022-08-26T18:32:22.674Z,12.45
2022-08-26T18:37:31.414Z,13.85
2022-08-26T18:39:59.231Z,13.00
2022-08-26T18:42:26.696Z,12.55
2022-08-26T18:44:54.881Z,14.20
2022-08-26T18:47:22.273Z,15.13
2022-08-26T18:49:49.471Z,15.77
2022-08-26T18:52:17.018Z,14.73
2022-08-26T19:00:11.175Z,12.75
2022-08-26T19:02:38.102Z,14.65
2022-08-26T19:05:07.384Z,13.65
2022-08-26T19:07:38.999Z,14.77
2022-08-26T19:10:07.513Z,14.75
2022-08-26T19:12:36.105Z,14.05
2022-08-26T19:15:03.794Z,13.85
2022-08-26T19:22:36.993Z,14.10
2022-08-26T19:25:05.064Z,14.73
2022-08-26T19:27:33.014Z,14.23
2022-08-26T19:30:00.613Z,14.82
2022-08-26T19:32:28.094Z,14.13
2022-08-26T19:34:54.961Z,14.25
2022-08-26T19:37:22.493Z,13.75
2022-08-26T19:45:20.195Z,14.65
2022-08-26T19:47:53.183Z,14.77
2022-08-26T19:50:21.064Z,16.38
2022-08-26T19:52:48.369Z,13.88
2022-08-26T19:55:16.927Z,13.57
2022-08-26T19:57:44.127Z,14.52
2022-08-26T20:00:15.324Z,15.68
2022-08-26T20:07:52.758Z,15.52
2022-08-26T20:10:24.411Z,17.05
2022-08-26T20:12:54.413Z,15.25
2022-08-26T20:15:24.834Z,17.45
2022-08-26T20:17:58.731Z,16.48
2022-08-26T20:20:46.109Z,15.65
2022-08-26T20:27:51.979Z,15.18
2022-08-26T20:30:19.128Z,16.05
2022-08-26T20:32:46.341Z,16.35
2022-08-26T20:35:14.126Z,16.23
2022-08-26T20:37:42.613Z,15.57
2022-08-26T20:40:11.600Z,15.60
2022-08-26T20:42:38.679Z,15.32
2022-08-26T20:50:14.059Z,15.30
2022-08-26T20:52:41.640Z,15.45
2022-08-26T20:55:09.158Z,16.85
2022-08-26T20:57:38.161Z,15.63
2022-08-26T21:00:07.392Z,15.27
2022-08-26T21:02:34.402Z,15.65
2022-08-26T21:05:01.625Z,17.30
2022-08-26T21:12:40.791Z,16.30
2022-08-26T21:15:08.779Z,15.70
2022-08-26T21:17:35.416Z,15.57
2022-08-26T21:20:03.229Z,16.58
2022-08-26T21:22:30.272Z,15.80
2022-08-26T21:24:57.406Z,16.30
2022-08-26T21:27:26.407Z,16.27
2022-08-26T21:47:37.851Z,17.75
2022-08-26T21:50:05.989Z,18.38
2022-08-26T21:52:32.801Z,18.52
2022-08-26T21:55:01.549Z,17.05
2022-08-26T21:57:29.588Z,19.10
2022-08-26T21:59:56.680Z,16.98
2022-08-26T22:02:24.715Z,17.55
2022-08-26T22:25:29.267Z,18.75
2022-08-26T22:27:55.894Z,19.02
2022-08-26T22:30:23.682Z,18.00
2022-08-26T22:32:50.630Z,18.27
2022-08-26T22:35:28.699Z,20.63
2022-08-26T22:37:57.739Z,20.48
2022-08-26T22:40:24.839Z,22.98
2022-08-26T22:56:08.217Z,22.95
2022-08-26T22:58:36.344Z,22.98
2022-08-26T23:01:04.736Z,21.60
2022-08-26T23:03:32.147Z,19.95
2022-08-26T23:06:00.113Z,20.33
2022-08-26T23:08:27.294Z,16.98
2022-08-26T23:10:54.206Z,18.27
2022-08-26T23:18:28.157Z,17.98
2022-08-26T23:20:55.357Z,16.30
2022-08-26T23:23:23.208Z,15.20
2022-08-26T23:25:50.115Z,15.70
2022-08-26T23:28:17.554Z,15.77
2022-08-26T23:30:44.191Z,14.88
2022-08-26T23:33:11.187Z,14.30
2022-08-26T23:38:17.977Z,14.15
2022-08-26T23:40:47.427Z,15.25
2022-08-26T23:43:15.849Z,14.70
2022-08-26T23:45:43.311Z,15.82
2022-08-26T23:48:10.327Z,15.25
2022-08-26T23:50:55.984Z,15.77
2022-08-26T23:53:22.960Z,16.58
